createdAt,value
2022-12-03T00:01:20.572Z,100.00
2022-12-03T00:04:23.624Z,100.00
2022-12-03T00:07:26.205Z,100.00
2022-12-03T00:10:29.213Z,100.00
2022-12-03T00:13:31.724Z,100.00
2022-12-03T00:16:34.589Z,100.00
2022-12-03T00:19:37.047Z,100.00
2022-12-03T00:22:39.883Z,100.00
2022-12-03T00:25:42.446Z,100.00
2022-12-03T00:28:46.074Z,100.00
2022-12-03T00:31:49.133Z,100.00
2022-12-03T00:34:52.484Z,100.00
2022-12-03T00:37:56.015Z,100.00
2022-12-03T00:40:58.953Z,100.00
2022-12-03T00:44:01.556Z,100.00
2022-12-03T00:47:04.675Z,100.00
2022-12-03T00:50:08.364Z,100.00
2022-12-03T00:53:11.190Z,100.00
2022-12-03T00:56:13.796Z,100.00
2022-12-03T00:59:16.697Z,100.00
2022-12-03T01:02:19.285Z,100.00
2022-12-03T01:05:22.284Z,100.00
2022-12-03T01:08:24.788Z,100.00
2022-12-03T01:11:40.768Z,100.00
2022-12-03T01:14:44.350Z,100.00
2022-12-03T01:17:47.199Z,100.00
2022-12-03T01:20:49.739Z,100.00
2022-12-03T01:23:52.702Z,100.00
2022-12-03T01:26:56.579Z,100.00
2022-12-03T01:29:59.548Z,100.00
2022-12-03T01:33:02.097Z,100.00
2022-12-03T01:36:05.105Z,100.00
2022-12-03T01:39:07.984Z,100.00
2022-12-03T01:42:25.537Z,100.00
2022-12-03T01:45:29.463Z,100.00
2022-12-03T01:48:35.081Z,100.00
2022-12-03T01:51:37.652Z,100.00
2022-12-03T01:54:43.209Z,100.00
2022-12-03T01:57:48.072Z,100.00
2022-12-03T02:00:51.181Z,100.00
2022-12-03T02:03:54.091Z,100.00
2022-12-03T02:06:56.940Z,100.00
2022-12-03T02:10:02.320Z,100.00
2022-12-03T02:13:08.127Z,100.00
2022-12-03T02:16:10.933Z,100.00
2022-12-03T02:19:27.624Z,100.00
2022-12-03T02:22:51.908Z,100.00
2022-12-03T02:25:54.796Z,100.00
2022-12-03T02:28:58.023Z,100.00
2022-12-03T02:32:01.027Z,100.00
2022-12-03T02:35:03.648Z,100.00
2022-12-03T02:38:15.322Z,100.00
2022-12-03T02:41:37.544Z,100.00
2022-12-03T02:44:40.539Z,100.00
2022-12-03T02:47:45.679Z,100.00
2022-12-03T02:50:51.039Z,100.00
2022-12-03T02:53:54.395Z,100.00
2022-12-03T02:56:57.253Z,100.00
2022-12-03T02:59:59.992Z,100.00
2022-12-03T03:03:04.593Z,100.00
2022-12-03T03:06:08.419Z,100.00
2022-12-03T03:09:11.357Z,100.00
2022-12-03T03:12:13.943Z,100.00
2022-12-03T03:15:16.898Z,100.00
2022-12-03T03:18:19.614Z,100.00
2022-12-03T03:21:22.524Z,100.00
2022-12-03T03:24:25.764Z,100.00
2022-12-03T03:27:28.952Z,100.00
2022-12-03T03:30:32.003Z,100.00
2022-12-03T03:33:35.487Z,100.00
2022-12-03T03:36:38.113Z,100.00
2022-12-03T03:39:40.900Z,100.00
2022-12-03T03:42:43.566Z,100.00
2022-12-03T03:45:47.011Z,100.00
2022-12-03T03:48:50.143Z,100.00
2022-12-03T03:51:53.096Z,100.00
2022-12-03T03:54:55.834Z,100.00
2022-12-03T03:57:59.071Z,100.00
2022-12-03T04:01:02.101Z,100.00
2022-12-03T04:04:07.061Z,100.00
2022-12-03T04:07:09.998Z,100.00
2022-12-03T04:10:32.462Z,100.00
2022-12-03T04:13:34.954Z,100.00
2022-12-03T04:16:37.823Z,100.00
2022-12-03T04:19:40.364Z,100.00
2022-12-03T04:22:43.319Z,100.00
2022-12-03T04:26:04.349Z,100.00
2022-12-03T04:29:07.155Z,100.00
2022-12-03T04:32:28.039Z,100.00
2022-12-03T04:35:42.999Z,100.00
2022-12-03T04:38:45.530Z,100.00
2022-12-03T04:41:48.316Z,100.00
2022-12-03T04:44:51.353Z,100.00
2022-12-03T04:47:54.266Z,100.00
2022-12-03T04:50:56.752Z,100.00
2022-12-03T04:53:59.534Z,100.00
2022-12-03T04:57:02.889Z,100.00
2022-12-03T05:00:06.458Z,100.00
2022-12-03T05:03:09.017Z,100.00
2022-12-03T05:06:11.921Z,100.00
2022-12-03T05:09:14.698Z,100.00
2022-12-03T05:12:17.611Z,100.00
2022-12-03T05:15:20.097Z,100.00
2022-12-03T05:18:23.063Z,100.00
2022-12-03T05:21:25.594Z,100.00
2022-12-03T05:24:28.494Z,100.00
2022-12-03T05:27:31.191Z,100.00
2022-12-03T05:30:34.163Z,100.00
2022-12-03T05:33:40.991Z,100.00
2022-12-03T05:36:46.970Z,100.00
2022-12-03T05:39:49.955Z,100.00
2022-12-03T05:42:57.127Z,100.00
2022-12-03T05:45:59.909Z,100.00
2022-12-03T05:49:05.932Z,100.00
2022-12-03T05:52:08.539Z,100.00
2022-12-03T05:55:12.003Z,100.00
2022-12-03T05:58:14.619Z,100.00
2022-12-03T06:01:17.501Z,100.00
2022-12-03T06:04:20.589Z,100.00
2022-12-03T06:07:23.162Z,100.00
2022-12-03T06:10:26.480Z,100.00
2022-12-03T06:13:29.039Z,100.00
2022-12-03T06:16:31.958Z,100.00
2022-12-03T06:19:34.793Z,100.00
2022-12-03T06:22:37.577Z,100.00
2022-12-03T06:25:40.075Z,100.00
2022-12-03T06:28:47.704Z,100.00
2022-12-03T06:31:50.279Z,100.00
2022-12-03T06:34:53.378Z,100.00
2022-12-03T06:37:56.120Z,100.00
2022-12-03T06:40:59.005Z,100.00
2022-12-03T06:44:01.584Z,100.00
2022-12-03T06:47:04.407Z,100.00
2022-12-03T06:50:08.174Z,100.00
2022-12-03T06:53:11.164Z,100.00
2022-12-03T06:56:13.669Z,100.00
2022-12-03T06:59:16.451Z,100.00
2022-12-03T07:02:20.198Z,100.00
2022-12-03T07:05:22.994Z,100.00
2022-12-03T07:08:25.669Z,100.00
2022-12-03T07:11:31.043Z,100.00
2022-12-03T07:14:33.611Z,100.00
2022-12-03T07:17:36.402Z,100.00
2022-12-03T07:20:38.899Z,100.00
2022-12-03T07:23:41.848Z,100.00
2022-12-03T07:26:44.377Z,100.00
2022-12-03T07:29:47.286Z,100.00
2022-12-03T07:32:50.311Z,100.00
2022-12-03T07:35:53.059Z,100.00
2022-12-03T07:38:55.571Z,100.00
2022-12-03T07:41:58.307Z,100.00
2022-12-03T07:45:01.418Z,100.00
2022-12-03T07:48:05.866Z,100.00
2022-12-03T07:51:11.579Z,100.00
2022-12-03T07:54:17.659Z,100.00
2022-12-03T07:57:20.323Z,100.00
2022-12-03T08:00:23.307Z,100.00
2022-12-03T08:03:26.125Z,100.00
2022-12-03T08:06:28.663Z,100.00
2022-12-03T08:09:31.943Z,100.00
2022-12-03T08:12:40.401Z,100.00
2022-12-03T08:15:44.068Z,100.00
2022-12-03T08:18:47.876Z,100.00
2022-12-03T08:21:50.645Z,100.00
2022-12-03T08:24:53.571Z,100.00
2022-12-03T08:28:20.697Z,100.00
2022-12-03T08:31:32.429Z,100.00
2022-12-03T08:34:40.508Z,100.00
2022-12-03T08:37:42.991Z,100.00
2022-12-03T08:40:47.214Z,100.00
2022-12-03T08:43:49.798Z,100.00
2022-12-03T08:47:12.990Z,100.00
2022-12-03T08:50:38.706Z,100.00
2022-12-03T08:53:48.541Z,100.00
2022-12-03T08:56:51.048Z,100.00
2022-12-03T08:59:59.157Z,100.00
2022-12-03T09:03:01.760Z,100.00
2022-12-03T09:06:05.043Z,100.00
2022-12-03T09:09:07.560Z,100.00
2022-12-03T09:12:11.057Z,100.00
2022-12-03T09:15:13.697Z,100.00
2022-12-03T09:18:16.543Z,100.00
2022-12-03T09:21:19.548Z,100.00
2022-12-03T09:24:22.472Z,100.00
2022-12-03T09:27:25.024Z,100.00
2022-12-03T09:30:28.011Z,100.00
2022-12-03T09:33:32.429Z,100.00
2022-12-03T09:36:35.323Z,100.00
2022-12-03T09:39:37.924Z,100.00
2022-12-03T09:42:41.335Z,100.00
2022-12-03T09:45:48.083Z,100.00
2022-12-03T09:48:51.153Z,100.00
2022-12-03T09:51:58.903Z,100.00
2022-12-03T09:55:07.850Z,100.00
2022-12-03T09:58:12.564Z,100.00
2022-12-03T10:01:16.282Z,100.00
2022-12-03T10:04:19.928Z,100.00
2022-12-03T10:07:23.374Z,100.00
2022-12-03T10:10:26.272Z,100.00
2022-12-03T10:13:30.421Z,100.00
2022-12-03T10:16:33.873Z,100.00
2022-12-03T10:19:37.594Z,100.00
2022-12-03T10:22:40.601Z,100.00
2022-12-03T10:25:56.595Z,100.00
2022-12-03T10:28:59.785Z,100.00
2022-12-03T10:32:07.593Z,100.00
2022-12-03T10:35:20.609Z,100.00
2022-12-03T10:38:23.705Z,100.00
2022-12-03T10:41:29.253Z,100.00
2022-12-03T10:44:31.822Z,100.00
2022-12-03T10:47:35.090Z,100.00
2022-12-03T10:50:38.442Z,100.00
2022-12-03T10:53:41.563Z,100.00
2022-12-03T10:56:44.896Z,100.00
2022-12-03T10:59:48.013Z,100.00
2022-12-03T11:02:56.715Z,98.54
2022-12-03T11:06:06.080Z,96.07
2022-12-03T11:09:18.403Z,94.86
2022-12-03T11:12:24.553Z,93.05
2022-12-03T11:15:42.477Z,92.18
2022-12-03T11:18:45.775Z,90.26
2022-12-03T11:22:03.499Z,88.38
2022-12-03T11:25:24.978Z,87.77
2022-12-03T11:28:27.661Z,87.45
2022-12-03T11:31:36.566Z,87.03
2022-12-03T11:34:40.773Z,85.44
2022-12-03T11:37:43.580Z,85.70
2022-12-03T11:41:16.167Z,86.65
2022-12-03T11:44:30.712Z,87.58
2022-12-03T11:47:38.668Z,88.46
2022-12-03T11:50:43.817Z,89.34
2022-12-03T11:53:46.659Z,90.44
2022-12-03T11:56:50.203Z,90.25
2022-12-03T12:00:05.463Z,90.76
2022-12-03T12:03:22.861Z,91.60
2022-12-03T12:06:26.084Z,91.64
2022-12-03T12:09:49.329Z,92.09
2022-12-03T12:12:55.079Z,92.62
2022-12-03T12:16:02.549Z,92.51
2022-12-03T12:19:27.398Z,93.39
2022-12-03T12:22:31.532Z,93.36
2022-12-03T12:25:35.405Z,93.02
2022-12-03T12:28:38.010Z,93.72
2022-12-03T12:31:41.016Z,92.80
2022-12-03T12:34:50.912Z,91.91
2022-12-03T12:38:00.176Z,92.22
2022-12-03T12:41:07.126Z,93.04
2022-12-03T12:44:10.656Z,92.83
2022-12-03T12:47:13.311Z,93.40
2022-12-03T12:50:18.104Z,94.43
2022-12-03T12:53:29.668Z,95.67
2022-12-03T12:56:33.461Z,96.84
2022-12-03T12:59:36.369Z,98.49
2022-12-03T13:02:44.479Z,99.59
2022-12-03T13:05:48.979Z,100.00
2022-12-03T13:08:52.429Z,100.00
2022-12-03T13:11:57.681Z,100.00
2022-12-03T13:15:00.965Z,100.00
2022-12-03T13:18:24.606Z,100.00
2022-12-03T13:21:41.542Z,100.00
2022-12-03T13:24:47.690Z,100.00
2022-12-03T13:27:50.664Z,100.00
2022-12-03T13:30:53.248Z,100.00
2022-12-03T13:33:57.065Z,100.00
2022-12-03T13:37:04.368Z,100.00
2022-12-03T13:40:36.184Z,100.00
2022-12-03T13:43:44.327Z,100.00
2022-12-03T13:46:47.668Z,100.00
2022-12-03T13:49:55.372Z,100.00
2022-12-03T13:53:03.742Z,100.00
2022-12-03T13:56:18.428Z,100.00
2022-12-03T13:59:25.954Z,100.00
2022-12-03T14:02:28.914Z,100.00
2022-12-03T14:05:31.700Z,100.00
2022-12-03T14:08:34.231Z,100.00
2022-12-03T14:11:56.190Z,100.00
2022-12-03T14:14:58.952Z,100.00
2022-12-03T14:18:02.449Z,100.00
2022-12-03T14:21:05.097Z,100.00
2022-12-03T14:24:08.386Z,100.00
2022-12-03T14:27:11.162Z,100.00
2022-12-03T14:30:14.773Z,100.00
2022-12-03T14:33:17.240Z,100.00
2022-12-03T14:36:20.013Z,100.00
2022-12-03T14:39:22.801Z,100.00
2022-12-03T14:42:25.941Z,100.00
2022-12-03T14:45:30.060Z,100.00
2022-12-03T14:48:32.953Z,100.00
2022-12-03T14:51:35.819Z,100.00
2022-12-03T14:54:45.094Z,100.00
2022-12-03T14:57:47.771Z,100.00
2022-12-03T15:00:50.806Z,100.00
2022-12-03T15:03:53.645Z,100.00
2022-12-03T15:06:56.530Z,100.00
2022-12-03T15:09:59.228Z,100.00
2022-12-03T15:13:02.407Z,100.00
2022-12-03T15:16:05.213Z,100.00
2022-12-03T15:19:08.237Z,100.00
2022-12-03T15:22:10.778Z,100.00
2022-12-03T15:25:13.654Z,100.00
2022-12-03T15:28:16.177Z,100.00
2022-12-03T15:31:19.266Z,100.00
2022-12-03T15:34:23.410Z,100.00
2022-12-03T15:37:28.212Z,100.00
2022-12-03T15:40:31.512Z,100.00
2022-12-03T15:43:34.922Z,100.00
2022-12-03T15:46:37.400Z,100.00
2022-12-03T15:49:40.473Z,100.00
2022-12-03T15:52:43.041Z,100.00
2022-12-03T15:55:46.058Z,100.00
2022-12-03T15:58:48.755Z,100.00
2022-12-03T16:01:51.820Z,100.00
2022-12-03T16:04:54.920Z,100.00
2022-12-03T16:07:57.567Z,100.00
2022-12-03T16:11:00.384Z,100.00
2022-12-03T16:14:03.106Z,100.00
2022-12-03T16:17:05.886Z,100.00
2022-12-03T16:20:08.967Z,100.00
2022-12-03T16:23:11.898Z,100.00
2022-12-03T16:26:14.415Z,100.00
2022-12-03T16:29:17.503Z,100.00
2022-12-03T16:32:20.095Z,100.00
2022-12-03T16:35:23.283Z,100.00
2022-12-03T16:38:25.779Z,100.00
2022-12-03T16:41:28.659Z,100.00
2022-12-03T16:44:32.979Z,100.00
2022-12-03T16:47:36.060Z,100.00
2022-12-03T16:50:38.768Z,100.00
2022-12-03T16:53:42.105Z,100.00
2022-12-03T16:56:44.868Z,100.00
2022-12-03T16:59:47.852Z,100.00
2022-12-03T17:02:50.521Z,100.00
2022-12-03T17:05:53.299Z,100.00
2022-12-03T17:08:56.090Z,100.00
2022-12-03T17:11:59.040Z,100.00
2022-12-03T17:15:01.731Z,100.00
2022-12-03T17:18:05.779Z,100.00
2022-12-03T17:21:08.393Z,100.00
2022-12-03T17:24:11.184Z,100.00
2022-12-03T17:27:15.684Z,100.00
2022-12-03T17:30:18.766Z,100.00
2022-12-03T17:33:21.301Z,100.00
2022-12-03T17:36:24.915Z,100.00
2022-12-03T17:39:27.573Z,100.00
2022-12-03T17:42:30.434Z,100.00
2022-12-03T17:45:32.919Z,100.00
2022-12-03T17:48:35.861Z,100.00
2022-12-03T17:51:39.377Z,100.00
2022-12-03T17:55:09.172Z,100.00
2022-12-03T17:58:05.197Z,100.00
2022-12-03T18:01:11.560Z,100.00
2022-12-03T18:04:14.593Z,100.00
2022-12-03T18:07:17.144Z,100.00
2022-12-03T18:10:20.154Z,100.00
2022-12-03T18:13:22.887Z,100.00
2022-12-03T18:16:26.001Z,100.00
2022-12-03T18:19:28.725Z,100.00
2022-12-03T18:22:31.608Z,100.00
2022-12-03T18:25:34.115Z,100.00
2022-12-03T18:28:37.216Z,100.00
2022-12-03T18:31:39.984Z,100.00
2022-12-03T18:34:42.974Z,100.00
2022-12-03T18:37:45.784Z,100.00
2022-12-03T18:40:50.476Z,100.00
2022-12-03T18:43:53.174Z,100.00
2022-12-03T18:46:57.686Z,100.00
2022-12-03T18:50:00.365Z,100.00
2022-12-03T18:53:05.183Z,100.00
2022-12-03T18:56:08.852Z,100.00
2022-12-03T18:59:12.295Z,100.00
2022-12-03T19:02:32.462Z,100.00
2022-12-03T19:05:40.415Z,100.00
2022-12-03T19:08:43.538Z,100.00
2022-12-03T19:11:46.871Z,100.00
2022-12-03T19:14:51.121Z,100.00
2022-12-03T19:17:54.505Z,100.00
2022-12-03T19:20:57.824Z,100.00
2022-12-03T19:24:23.892Z,100.00
2022-12-03T19:27:24.941Z,100.00
2022-12-03T19:30:28.277Z,100.00
2022-12-03T19:33:31.500Z,100.00
2022-12-03T19:36:34.644Z,100.00
2022-12-03T19:39:38.550Z,100.00
2022-12-03T19:42:45.032Z,100.00
2022-12-03T19:45:47.903Z,100.00
2022-12-03T19:48:51.154Z,100.00
2022-12-03T19:51:54.851Z,100.00
2022-12-03T19:54:58.147Z,100.00
2022-12-03T19:58:00.890Z,100.00
2022-12-03T20:01:07.707Z,100.00
2022-12-03T20:04:11.446Z,100.00
2022-12-03T20:07:13.974Z,100.00
2022-12-03T20:10:17.327Z,100.00
2022-12-03T20:13:20.088Z,100.00
2022-12-03T20:16:24.365Z,100.00
2022-12-03T20:19:28.175Z,100.00
2022-12-03T20:22:31.322Z,100.00
2022-12-03T20:25:36.680Z,100.00
2022-12-03T20:28:40.187Z,100.00
2022-12-03T20:31:43.024Z,100.00
2022-12-03T20:34:46.175Z,100.00
2022-12-03T20:37:48.664Z,100.00
2022-12-03T20:40:51.978Z,100.00
2022-12-03T20:43:54.864Z,100.00
2022-12-03T20:46:57.706Z,100.00
2022-12-03T20:50:01.037Z,100.00
2022-12-03T20:53:23.722Z,100.00
2022-12-03T20:56:36.082Z,100.00
2022-12-03T20:59:39.656Z,100.00
2022-12-03T21:02:43.006Z,100.00
2022-12-03T21:05:47.156Z,100.00
2022-12-03T21:08:52.728Z,100.00
2022-12-03T21:11:55.566Z,100.00
2022-12-03T21:14:58.079Z,100.00
2022-12-03T21:18:02.523Z,100.00
2022-12-03T21:21:05.642Z,100.00
2022-12-03T21:24:08.612Z,100.00
2022-12-03T21:27:11.137Z,100.00
2022-12-03T21:30:14.281Z,100.00
2022-12-03T21:33:16.751Z,100.00
2022-12-03T21:36:19.907Z,100.00
2022-12-03T21:39:23.040Z,100.00
2022-12-03T21:42:35.722Z,100.00
2022-12-03T21:45:40.611Z,100.00
2022-12-03T21:48:44.815Z,100.00
2022-12-03T21:51:47.456Z,100.00
2022-12-03T21:54:52.580Z,100.00
2022-12-03T21:57:55.027Z,100.00
2022-12-03T22:00:58.007Z,100.00
2022-12-03T22:04:01.057Z,100.00
2022-12-03T22:07:04.430Z,100.00
2022-12-03T22:10:09.405Z,100.00
2022-12-03T22:13:11.956Z,100.00
2022-12-03T22:16:17.973Z,100.00
2022-12-03T22:19:24.358Z,100.00
2022-12-03T22:22:27.649Z,100.00
2022-12-03T22:25:30.610Z,100.00
2022-12-03T22:28:34.387Z,100.00
2022-12-03T22:31:37.038Z,100.00
2022-12-03T22:34:41.630Z,100.00
2022-12-03T22:37:44.591Z,100.00
2022-12-03T22:40:47.938Z,100.00
2022-12-03T22:43:50.417Z,100.00
2022-12-03T22:46:53.364Z,100.00
2022-12-03T22:49:58.603Z,100.00
2022-12-03T22:53:01.740Z,100.00
2022-12-03T22:56:04.385Z,100.00
2022-12-03T22:59:07.466Z,100.00
2022-12-03T23:02:10.306Z,100.00
2022-12-03T23:05:13.124Z,100.00
2022-12-03T23:08:18.997Z,100.00
2022-12-03T23:11:22.773Z,100.00
2022-12-03T23:14:25.324Z,100.00
2022-12-03T23:17:28.864Z,100.00
2022-12-03T23:20:31.648Z,100.00
2022-12-03T23:23:34.513Z,100.00
2022-12-03T23:26:38.580Z,100.00
2022-12-03T23:29:41.490Z,100.00
2022-12-03T23:32:44.531Z,100.00
2022-12-03T23:35:47.546Z,100.00
2022-12-03T23:38:50.411Z,100.00
2022-12-03T23:41:53.295Z,100.00
2022-12-03T23:44:55.832Z,100.00
2022-12-03T23:47:58.659Z,100.00
2022-12-03T23:51:08.549Z,100.00
2022-12-03T23:54:12.218Z,100.00
2022-12-03T23:57:15.984Z,100.00
